createdAt,value
2022-11-28T00:01:17.744Z,6.22
2022-11-28T00:03:44.804Z,6.55
2022-11-28T00:06:11.911Z,5.50
2022-11-28T00:08:39.019Z,5.50
2022-11-28T00:11:07.484Z,5.45
2022-11-28T00:13:34.795Z,5.38
2022-11-28T00:16:04.221Z,6.38
2022-11-28T00:18:31.773Z,5.75
2022-11-28T00:21:06.398Z,6.13
2022-11-28T00:23:33.954Z,6.15
2022-11-28T00:26:06.243Z,6.13
2022-11-28T00:28:33.496Z,6.70
2022-11-28T00:31:00.578Z,6.30
2022-11-28T00:33:27.917Z,6.03
2022-11-28T00:36:02.074Z,6.88
2022-11-28T00:38:29.674Z,6.43
2022-11-28T00:41:00.841Z,6.25
2022-11-28T00:43:28.120Z,6.03
2022-11-28T00:45:55.214Z,6.25
2022-11-28T00:48:22.321Z,6.13
2022-11-28T00:50:49.616Z,5.88
2022-11-28T00:53:16.920Z,5.38
2022-11-28T00:55:44.026Z,6.38
2022-11-28T00:58:11.068Z,6.10
2022-11-28T01:00:38.794Z,5.35
2022-11-28T01:03:05.921Z,6.05
2022-11-28T01:05:33.040Z,6.43
2022-11-28T01:08:00.077Z,5.40
2022-11-28T01:10:27.185Z,6.20
2022-11-28T01:12:54.284Z,5.93
2022-11-28T01:15:21.344Z,5.57
2022-11-28T01:17:48.361Z,6.15
2022-11-28T01:20:15.629Z,5.50
2022-11-28T01:22:42.693Z,5.95
2022-11-28T01:25:09.750Z,6.50
2022-11-28T01:27:36.768Z,5.65
2022-11-28T01:30:04.434Z,6.07
2022-11-28T01:32:31.484Z,7.15
2022-11-28T01:34:58.500Z,5.82
2022-11-28T01:37:25.525Z,5.85
2022-11-28T01:39:52.557Z,6.13
2022-11-28T01:42:20.135Z,6.60
2022-11-28T01:44:50.329Z,6.05
2022-11-28T01:47:19.340Z,6.18
2022-11-28T01:49:47.339Z,5.40
2022-11-28T01:52:16.461Z,6.40
2022-11-28T01:54:45.479Z,6.40
2022-11-28T01:57:16.092Z,6.80
2022-11-28T01:59:45.759Z,5.68
2022-11-28T02:02:18.682Z,6.05
2022-11-28T02:04:46.389Z,5.72
2022-11-28T02:07:13.966Z,5.80
2022-11-28T02:09:41.018Z,6.35
2022-11-28T02:12:16.729Z,6.43
2022-11-28T02:15:16.241Z,6.43
2022-11-28T02:18:02.170Z,7.20
2022-11-28T02:20:55.250Z,6.78
2022-11-28T02:23:28.432Z,7.72
2022-11-28T02:26:14.337Z,7.43
2022-11-28T02:29:28.231Z,7.40
2022-11-28T02:32:13.929Z,7.10
2022-11-28T02:34:47.112Z,7.35
2022-11-28T02:37:20.321Z,7.88
2022-11-28T02:40:06.194Z,8.07
2022-11-28T02:42:42.992Z,7.72
2022-11-28T02:45:10.355Z,7.30
2022-11-28T02:47:39.235Z,7.55
2022-11-28T02:50:06.349Z,7.68
2022-11-28T02:52:59.656Z,6.85
2022-11-28T02:55:27.127Z,7.97
2022-11-28T02:57:55.419Z,8.30
2022-11-28T03:00:33.283Z,8.07
2022-11-28T03:03:08.320Z,8.38
2022-11-28T03:05:41.305Z,8.70
2022-11-28T03:08:11.388Z,9.18
2022-11-28T03:10:45.953Z,6.88
2022-11-28T03:13:25.291Z,8.15
2022-11-28T03:15:58.529Z,7.78
2022-11-28T03:18:27.348Z,8.38
2022-11-28T03:20:54.323Z,8.68
2022-11-28T03:23:32.217Z,9.10
2022-11-28T03:26:02.234Z,9.07
2022-11-28T03:28:39.272Z,8.15
2022-11-28T03:31:15.245Z,8.55
2022-11-28T03:34:02.532Z,8.55
2022-11-28T03:36:31.763Z,8.32
2022-11-28T03:39:00.830Z,8.50
2022-11-28T03:41:31.270Z,8.13
2022-11-28T03:43:59.034Z,9.82
2022-11-28T03:46:28.165Z,8.57
2022-11-28T03:48:56.595Z,7.82
2022-11-28T03:51:34.608Z,8.68
2022-11-28T03:54:08.539Z,7.93
2022-11-28T03:56:47.478Z,7.80
2022-11-28T03:59:17.746Z,8.18
2022-11-28T04:01:49.669Z,8.93
2022-11-28T04:04:31.291Z,8.63
2022-11-28T04:07:01.327Z,8.07
2022-11-28T04:09:28.341Z,8.85
2022-11-28T04:11:57.493Z,7.32
2022-11-28T04:14:29.396Z,7.43
2022-11-28T04:17:01.029Z,7.47
2022-11-28T04:19:34.008Z,6.78
2022-11-28T04:22:04.063Z,8.57
2022-11-28T04:24:37.715Z,6.82
2022-11-28T04:27:07.047Z,7.22
2022-11-28T04:29:39.930Z,7.82
2022-11-28T04:32:08.767Z,7.25
2022-11-28T04:34:36.790Z,8.35
2022-11-28T04:37:09.608Z,6.80
2022-11-28T04:39:37.506Z,7.22
2022-11-28T04:42:10.952Z,8.25
2022-11-28T04:44:41.350Z,7.45
2022-11-28T04:47:08.681Z,6.38
2022-11-28T04:49:35.728Z,7.25
2022-11-28T04:52:07.385Z,6.75
2022-11-28T04:54:50.801Z,7.35
2022-11-28T04:57:36.583Z,16.15
2022-11-28T05:00:06.035Z,7.32
2022-11-28T05:02:33.932Z,8.18
2022-11-28T05:05:01.112Z,7.80
2022-11-28T05:07:28.257Z,6.90
2022-11-28T05:09:57.594Z,6.38
2022-11-28T05:12:24.616Z,7.28
2022-11-28T05:14:51.956Z,7.20
2022-11-28T05:17:18.949Z,6.53
2022-11-28T05:19:46.046Z,6.60
2022-11-28T05:22:13.118Z,7.30
2022-11-28T05:24:40.123Z,6.65
2022-11-28T05:27:07.786Z,6.65
2022-11-28T05:29:35.034Z,7.57
2022-11-28T05:32:02.594Z,6.03
2022-11-28T05:34:31.034Z,7.35
2022-11-28T05:36:58.711Z,7.78
2022-11-28T05:39:26.871Z,6.50
2022-11-28T05:41:55.328Z,6.72
2022-11-28T05:44:26.675Z,7.28
2022-11-28T05:46:54.094Z,7.45
2022-11-28T05:49:21.639Z,6.82
2022-11-28T05:51:49.254Z,6.75
2022-11-28T05:54:16.402Z,7.20
2022-11-28T05:56:43.419Z,6.90
2022-11-28T05:59:10.517Z,6.35
2022-11-28T06:01:37.529Z,6.75
2022-11-28T06:04:04.608Z,7.32
2022-11-28T06:06:32.763Z,7.35
2022-11-28T06:08:59.913Z,6.50
2022-11-28T06:11:27.947Z,7.55
2022-11-28T06:13:55.116Z,8.13
2022-11-28T06:16:26.092Z,7.65
2022-11-28T06:18:57.664Z,7.97
2022-11-28T06:21:25.405Z,11.35
2022-11-28T06:23:52.473Z,7.53
2022-11-28T06:26:20.983Z,7.15
2022-11-28T06:28:48.107Z,6.68
2022-11-28T06:31:16.897Z,7.40
2022-11-28T06:33:43.969Z,6.95
2022-11-28T06:36:11.588Z,6.97
2022-11-28T06:38:38.740Z,7.05
2022-11-28T06:41:07.995Z,6.25
2022-11-28T06:43:35.305Z,7.22
2022-11-28T06:46:02.737Z,8.18
2022-11-28T06:48:29.773Z,5.72
2022-11-28T06:51:02.988Z,7.53
2022-11-28T06:53:31.596Z,6.80
2022-11-28T06:55:58.924Z,6.78
2022-11-28T06:58:25.943Z,6.65
2022-11-28T07:00:53.054Z,6.55
2022-11-28T07:03:20.109Z,8.70
2022-11-28T07:05:47.124Z,7.65
2022-11-28T07:08:14.312Z,7.07
2022-11-28T07:10:41.363Z,8.68
2022-11-28T07:13:09.758Z,7.72
2022-11-28T07:15:36.761Z,8.27
2022-11-28T07:18:04.015Z,8.40
2022-11-28T07:20:30.999Z,7.90
2022-11-28T07:22:57.999Z,7.03
2022-11-28T07:25:25.004Z,7.97
2022-11-28T07:27:52.058Z,7.70
2022-11-28T07:30:20.160Z,6.95
2022-11-28T07:32:47.202Z,7.18
2022-11-28T07:35:14.226Z,6.65
2022-11-28T07:37:41.243Z,7.30
2022-11-28T07:40:08.663Z,8.65
2022-11-28T07:42:36.652Z,7.53
2022-11-28T07:45:04.139Z,6.53
2022-11-28T07:47:31.591Z,7.00
2022-11-28T07:49:58.619Z,7.05
2022-11-28T07:52:25.657Z,6.80
2022-11-28T07:54:52.677Z,6.38
2022-11-28T07:57:19.766Z,7.18
2022-11-28T07:59:46.799Z,6.95
2022-11-28T08:02:14.126Z,6.60
2022-11-28T08:04:47.083Z,7.35
2022-11-28T08:07:16.578Z,6.95
2022-11-28T08:09:44.036Z,8.07
2022-11-28T08:12:11.308Z,6.70
2022-11-28T08:14:38.457Z,7.47
2022-11-28T08:17:05.501Z,7.00
2022-11-28T08:19:35.344Z,7.68
2022-11-28T08:22:03.678Z,6.75
2022-11-28T08:24:30.732Z,6.68
2022-11-28T08:26:58.008Z,6.00
2022-11-28T08:29:25.041Z,6.47
2022-11-28T08:31:52.065Z,6.47
2022-11-28T08:34:19.153Z,6.78
2022-11-28T08:36:47.349Z,6.30
2022-11-28T08:39:29.823Z,7.50
2022-11-28T08:41:58.739Z,7.18
2022-11-28T08:44:26.840Z,7.40
2022-11-28T08:46:54.048Z,7.22
2022-11-28T08:49:21.112Z,8.52
2022-11-28T08:51:48.160Z,7.88
2022-11-28T08:54:15.729Z,6.85
2022-11-28T08:56:44.779Z,7.32
2022-11-28T08:59:11.786Z,7.43
2022-11-28T09:01:39.779Z,8.30
2022-11-28T09:04:07.102Z,7.22
2022-11-28T09:06:34.348Z,7.20
2022-11-28T09:09:03.018Z,7.30
2022-11-28T09:11:30.069Z,7.80
2022-11-28T09:13:57.171Z,7.65
2022-11-28T09:16:24.403Z,6.43
2022-11-28T09:18:51.570Z,6.90
2022-11-28T09:21:18.736Z,7.32
2022-11-28T09:23:46.097Z,6.28
2022-11-28T09:26:14.612Z,6.13
2022-11-28T09:28:41.654Z,6.07
2022-11-28T09:31:09.253Z,7.25
2022-11-28T09:33:36.622Z,7.20
2022-11-28T09:36:08.110Z,6.85
2022-11-28T09:38:35.326Z,9.48
2022-11-28T09:41:03.512Z,8.88
2022-11-28T09:43:33.120Z,7.32
2022-11-28T09:46:02.918Z,7.82
2022-11-28T09:48:32.587Z,7.30
2022-11-28T09:51:20.029Z,6.68
2022-11-28T09:53:51.447Z,9.60
2022-11-28T09:56:21.368Z,9.75
2022-11-28T09:58:55.494Z,20.00
2022-11-28T10:01:25.438Z,7.70
2022-11-28T10:03:56.587Z,8.55
2022-11-28T10:06:26.078Z,7.68
2022-11-28T10:08:59.413Z,7.93
2022-11-28T10:11:44.992Z,7.25
2022-11-28T10:14:18.104Z,6.72
2022-11-28T10:16:51.395Z,6.72
2022-11-28T10:19:52.208Z,7.50
2022-11-28T10:22:10.587Z,7.35
2022-11-28T10:24:55.072Z,7.72
2022-11-28T10:27:27.087Z,6.53
2022-11-28T10:30:02.642Z,6.90
2022-11-28T10:32:33.269Z,7.63
2022-11-28T10:35:00.262Z,8.23
2022-11-28T10:37:28.421Z,6.65
2022-11-28T10:39:56.445Z,7.20
2022-11-28T10:42:27.799Z,7.30
2022-11-28T10:45:00.745Z,6.90
2022-11-28T10:47:52.943Z,7.68
2022-11-28T10:50:33.929Z,6.68
2022-11-28T10:53:06.682Z,6.60
2022-11-28T10:56:00.895Z,6.35
2022-11-28T10:58:30.728Z,7.40
2022-11-28T11:00:58.449Z,6.90
2022-11-28T11:03:28.462Z,7.38
2022-11-28T11:05:55.541Z,7.20
2022-11-28T11:08:23.927Z,7.88
2022-11-28T11:10:52.582Z,7.10
2022-11-28T11:13:19.644Z,6.57
2022-11-28T11:15:53.767Z,7.32
2022-11-28T11:18:31.887Z,7.25
2022-11-28T11:21:17.914Z,7.93
2022-11-28T11:23:45.692Z,6.85
2022-11-28T11:26:32.978Z,6.85
2022-11-28T11:29:00.054Z,7.18
2022-11-28T11:31:28.879Z,7.53
2022-11-28T11:34:13.596Z,8.05
2022-11-28T11:36:40.830Z,7.63
2022-11-28T11:39:07.925Z,7.70
2022-11-28T11:41:35.100Z,7.28
2022-11-28T11:44:25.232Z,7.63
2022-11-28T11:46:52.416Z,8.18
2022-11-28T11:49:28.674Z,7.55
2022-11-28T11:52:07.775Z,8.30
2022-11-28T11:54:34.844Z,7.43
2022-11-28T11:57:30.655Z,8.13
2022-11-28T11:59:54.942Z,7.60
2022-11-28T12:02:37.428Z,7.68
2022-11-28T12:05:09.734Z,7.93
2022-11-28T12:07:49.332Z,9.32
2022-11-28T12:10:18.771Z,7.93
2022-11-28T12:12:45.849Z,8.32
2022-11-28T12:15:16.118Z,7.93
2022-11-28T12:18:03.899Z,7.32
2022-11-28T12:20:43.119Z,8.18
2022-11-28T12:23:17.184Z,8.52
2022-11-28T12:25:56.975Z,8.40
2022-11-28T12:28:32.876Z,7.88
2022-11-28T12:31:06.005Z,8.40
2022-11-28T12:33:39.188Z,8.15
2022-11-28T12:36:25.058Z,8.77
2022-11-28T12:39:01.503Z,7.47
2022-11-28T12:41:40.973Z,9.13
2022-11-28T12:44:07.959Z,8.27
2022-11-28T12:46:40.115Z,10.03
2022-11-28T12:49:17.847Z,13.55
2022-11-28T12:52:09.813Z,8.85
2022-11-28T12:54:39.651Z,12.97
2022-11-28T12:57:19.910Z,15.30
2022-11-28T13:00:09.184Z,15.73
2022-11-28T13:02:52.860Z,16.80
2022-11-28T13:05:27.964Z,9.40
2022-11-28T13:08:13.815Z,18.47
2022-11-28T13:10:53.146Z,12.05
2022-11-28T13:13:39.930Z,10.67
2022-11-28T13:16:07.052Z,16.20
2022-11-28T13:18:46.350Z,15.83
2022-11-28T13:21:19.388Z,21.95
2022-11-28T13:24:07.170Z,15.67
2022-11-28T13:26:39.319Z,15.65
2022-11-28T13:29:35.673Z,28.10
2022-11-28T13:32:17.634Z,18.30
2022-11-28T13:34:45.516Z,12.33
2022-11-28T13:40:45.675Z,14.00
2022-11-28T13:43:38.826Z,13.35
2022-11-28T13:46:08.277Z,13.13
2022-11-28T13:51:33.241Z,12.50
2022-11-28T13:54:40.863Z,10.13
2022-11-28T13:57:28.975Z,11.30
2022-11-28T14:00:04.459Z,11.00
2022-11-28T14:02:48.044Z,9.50
2022-11-28T14:05:26.575Z,9.38
2022-11-28T14:07:55.965Z,9.70
2022-11-28T14:10:33.603Z,9.80
2022-11-28T14:13:22.937Z,9.80
2022-11-28T14:16:18.001Z,9.20
2022-11-28T14:19:15.228Z,7.77
2022-11-28T14:22:06.477Z,8.13
2022-11-28T14:24:48.153Z,7.47
2022-11-28T14:27:27.692Z,6.83
2022-11-28T14:29:56.821Z,7.80
2022-11-28T14:32:35.407Z,7.50
2022-11-28T14:35:03.449Z,8.20
2022-11-28T14:37:34.675Z,6.27
2022-11-28T14:40:01.653Z,6.53
2022-11-28T14:42:59.108Z,7.27
2022-11-28T14:45:33.401Z,8.00
2022-11-28T14:48:17.306Z,7.87
2022-11-28T14:50:56.216Z,11.90
2022-11-28T14:53:45.424Z,9.10
2022-11-28T14:56:26.397Z,10.67
2022-11-28T14:58:57.957Z,6.97
2022-11-28T15:01:42.620Z,13.47
2022-11-28T15:04:36.650Z,7.50
2022-11-28T15:07:08.004Z,6.80
2022-11-28T15:09:42.759Z,6.73
2022-11-28T15:12:30.826Z,11.50
2022-11-28T15:14:58.168Z,12.37
2022-11-28T15:17:33.336Z,10.37
2022-11-28T15:20:09.118Z,7.87
2022-11-28T15:22:41.545Z,7.23
2022-11-28T15:25:21.719Z,7.10
2022-11-28T15:27:49.692Z,7.43
2022-11-28T15:30:21.656Z,7.93
2022-11-28T15:32:49.044Z,7.87
2022-11-28T15:35:20.532Z,6.40
2022-11-28T15:37:54.474Z,7.60
2022-11-28T15:40:33.901Z,7.00
2022-11-28T15:43:06.624Z,8.33
2022-11-28T15:45:36.857Z,7.47
2022-11-28T15:48:04.703Z,7.10
2022-11-28T15:50:33.721Z,7.80
2022-11-28T15:53:03.534Z,8.27
2022-11-28T15:55:32.707Z,7.87
2022-11-28T15:58:21.402Z,8.83
2022-11-28T16:01:18.657Z,8.37
2022-11-28T16:03:51.613Z,7.97
2022-11-28T16:06:19.679Z,8.20
2022-11-28T16:08:58.771Z,8.60
2022-11-28T16:11:28.441Z,9.00
2022-11-28T16:13:58.976Z,8.27
2022-11-28T16:16:31.604Z,8.00
2022-11-28T16:19:01.805Z,7.80
2022-11-28T16:21:35.233Z,7.53
2022-11-28T16:24:03.344Z,7.33
2022-11-28T16:26:36.304Z,7.70
2022-11-28T16:29:13.483Z,7.83
2022-11-28T16:31:41.831Z,7.83
2022-11-28T16:34:13.681Z,10.50
2022-11-28T16:36:42.508Z,8.53
2022-11-28T16:39:12.084Z,9.07
2022-11-28T16:41:43.264Z,8.70
2022-11-28T16:44:15.869Z,9.03
2022-11-28T16:46:55.609Z,8.30
2022-11-28T16:49:28.199Z,9.00
2022-11-28T16:52:22.496Z,9.03
2022-11-28T16:54:56.349Z,7.97
2022-11-28T16:57:26.508Z,8.10
2022-11-28T16:59:56.800Z,9.30
2022-11-28T17:02:26.741Z,7.97
2022-11-28T17:04:53.912Z,8.63
2022-11-28T17:07:23.214Z,8.60
2022-11-28T17:09:50.395Z,8.23
2022-11-28T17:12:27.489Z,9.53
2022-11-28T17:14:55.419Z,9.10
2022-11-28T17:17:23.442Z,9.57
2022-11-28T17:19:50.923Z,8.50
2022-11-28T17:22:21.841Z,8.40
2022-11-28T17:24:50.389Z,10.00
2022-11-28T17:27:17.208Z,12.00
2022-11-28T17:29:44.323Z,11.83
2022-11-28T17:32:13.439Z,9.33
2022-11-28T17:34:41.982Z,10.23
2022-11-28T17:37:09.335Z,11.20
2022-11-28T17:39:36.331Z,18.50
2022-11-28T17:42:03.723Z,11.43
2022-11-28T17:44:36.362Z,10.10
2022-11-28T17:47:09.898Z,10.87
2022-11-28T17:49:46.742Z,9.67
2022-11-28T17:52:17.736Z,10.60
2022-11-28T17:54:50.766Z,10.70
2022-11-28T17:57:17.702Z,12.13
2022-11-28T17:59:48.693Z,9.27
2022-11-28T18:02:15.654Z,12.30
2022-11-28T18:04:45.714Z,12.20
2022-11-28T18:07:12.864Z,10.60
2022-11-28T18:09:49.473Z,11.30
2022-11-28T18:12:17.545Z,10.80
2022-11-28T18:14:44.147Z,9.77
2022-11-28T18:17:11.962Z,8.20
2022-11-28T18:19:38.738Z,8.37
2022-11-28T18:22:07.538Z,8.50
2022-11-28T18:24:34.457Z,9.10
2022-11-28T18:27:01.062Z,9.60
2022-11-28T18:29:27.794Z,10.37
2022-11-28T18:31:54.474Z,13.80
2022-11-28T18:34:22.253Z,13.00
2022-11-28T18:36:48.921Z,17.73
2022-11-28T18:39:15.677Z,21.17
2022-11-28T18:41:42.664Z,18.67
2022-11-28T18:44:11.220Z,18.63
2022-11-28T18:46:39.438Z,16.23
2022-11-28T18:49:06.161Z,14.05
2022-11-28T18:51:34.959Z,13.53
2022-11-28T18:54:05.501Z,11.20
2022-11-28T18:56:32.585Z,12.30
2022-11-28T18:58:59.239Z,11.97
2022-11-28T19:01:34.192Z,9.50
2022-11-28T19:04:04.040Z,9.03
2022-11-28T19:06:31.701Z,11.90
2022-11-28T19:09:01.008Z,10.73
2022-11-28T19:11:29.303Z,9.60
2022-11-28T19:13:56.763Z,10.83
2022-11-28T19:16:30.672Z,10.60
2022-11-28T19:18:58.131Z,10.03
2022-11-28T19:21:27.558Z,10.00
2022-11-28T19:23:55.763Z,9.03
2022-11-28T19:26:24.527Z,14.67
2022-11-28T19:28:51.325Z,11.88
2022-11-28T19:31:29.049Z,12.40
2022-11-28T19:34:01.281Z,10.90
2022-11-28T19:36:30.624Z,10.50
2022-11-28T19:38:58.539Z,10.10
2022-11-28T19:41:25.561Z,10.07
2022-11-28T19:43:52.656Z,9.80
2022-11-28T19:46:20.483Z,9.57
2022-11-28T19:48:48.216Z,10.70
2022-11-28T19:51:16.178Z,11.17
2022-11-28T19:53:44.738Z,9.83
2022-11-28T19:56:14.448Z,11.63
2022-11-28T19:58:41.760Z,8.87
2022-11-28T20:01:16.165Z,11.43
2022-11-28T20:03:43.324Z,11.10
2022-11-28T20:06:11.657Z,11.53
2022-11-28T20:08:39.372Z,11.30
2022-11-28T20:11:17.137Z,10.00
2022-11-28T20:13:44.620Z,11.07
2022-11-28T20:16:13.326Z,10.40
2022-11-28T20:18:41.549Z,11.80
2022-11-28T20:21:10.176Z,11.43
2022-11-28T20:23:44.248Z,11.90
2022-11-28T20:26:11.771Z,11.13
2022-11-28T20:28:40.462Z,11.30
2022-11-28T20:31:08.346Z,12.50
2022-11-28T20:33:35.392Z,11.93
2022-11-28T20:36:09.779Z,12.03
2022-11-28T20:38:36.911Z,11.17
2022-11-28T20:41:05.260Z,10.97
2022-11-28T20:43:32.914Z,12.07
2022-11-28T20:46:08.539Z,13.23
2022-11-28T20:48:35.598Z,13.33
2022-11-28T20:51:02.457Z,12.47
2022-11-28T20:53:30.989Z,13.37
2022-11-28T20:56:05.471Z,13.70
2022-11-28T20:58:33.084Z,13.30
2022-11-28T21:00:59.873Z,11.73
2022-11-28T21:03:26.947Z,11.80
2022-11-28T21:05:59.367Z,10.70
2022-11-28T21:08:30.314Z,12.40
2022-11-28T21:10:57.059Z,12.90
2022-11-28T21:13:23.675Z,11.20
2022-11-28T21:15:50.652Z,11.20
2022-11-28T21:18:17.467Z,13.37
2022-11-28T21:20:46.761Z,11.50
2022-11-28T21:23:15.313Z,11.60
2022-11-28T21:25:44.325Z,12.70
2022-11-28T21:28:12.349Z,11.53
2022-11-28T21:30:41.552Z,10.77
2022-11-28T21:33:10.011Z,10.70
2022-11-28T21:35:37.205Z,10.67
2022-11-28T21:38:04.330Z,11.93
2022-11-28T21:40:31.745Z,12.20
2022-11-28T21:42:59.793Z,12.90
2022-11-28T21:45:28.099Z,13.07
2022-11-28T21:47:56.342Z,12.10
2022-11-28T21:50:24.379Z,11.67
2022-11-28T21:52:52.436Z,11.60
2022-11-28T21:55:19.483Z,11.50
2022-11-28T21:57:46.527Z,11.00
2022-11-28T22:00:31.588Z,10.07
2022-11-28T22:03:08.058Z,11.53
2022-11-28T22:05:38.035Z,12.70
2022-11-28T22:08:08.257Z,10.48
2022-11-28T22:10:37.490Z,12.13
2022-11-28T22:13:04.500Z,9.90
2022-11-28T22:15:31.521Z,10.80
2022-11-28T22:17:58.596Z,10.17
2022-11-28T22:20:25.619Z,9.70
2022-11-28T22:22:52.685Z,10.10
2022-11-28T22:25:19.776Z,11.83
2022-11-28T22:27:46.831Z,11.80
2022-11-28T22:30:13.564Z,10.50
2022-11-28T22:32:40.203Z,10.53
2022-11-28T22:35:09.194Z,9.77
2022-11-28T22:37:36.413Z,11.17
2022-11-28T22:40:04.157Z,10.30
2022-11-28T22:42:30.819Z,9.67
2022-11-28T22:44:57.450Z,10.00
2022-11-28T22:47:24.096Z,10.70
2022-11-28T22:49:50.665Z,12.77
2022-11-28T22:52:17.439Z,11.33
2022-11-28T22:54:44.335Z,10.70
2022-11-28T22:57:11.115Z,10.20
2022-11-28T22:59:38.594Z,10.50
2022-11-28T23:02:05.382Z,11.97
2022-11-28T23:04:32.347Z,12.73
2022-11-28T23:07:00.505Z,11.93
2022-11-28T23:09:27.250Z,12.63
2022-11-28T23:11:53.870Z,13.00
2022-11-28T23:14:20.497Z,13.77
2022-11-28T23:16:49.590Z,13.23
2022-11-28T23:19:18.079Z,11.80
2022-11-28T23:21:46.558Z,12.67
2022-11-28T23:24:14.752Z,13.37
2022-11-28T23:26:41.894Z,12.93
2022-11-28T23:29:08.957Z,13.97
2022-11-28T23:31:37.908Z,16.00
2022-11-28T23:34:04.971Z,14.67
2022-11-28T23:36:38.481Z,15.30
2022-11-28T23:39:11.043Z,16.53
2022-11-28T23:41:38.100Z,16.87
2022-11-28T23:44:05.336Z,16.67
2022-11-28T23:46:33.277Z,16.60
2022-11-28T23:49:00.291Z,15.30
2022-11-28T23:51:27.375Z,13.90
2022-11-28T23:53:54.740Z,15.97
2022-11-28T23:56:27.093Z,15.77
2022-11-28T23:58:55.183Z,16.10
